sensor_id;sensor_type;location;lat;lon;timestamp;temperature;humidity
49765;DHT22;35657;51.204;-4.130;2023-03-14T00:01:20;9.30;99.90
49765;DHT22;35657;51.204;-4.130;2023-03-14T00:03:46;9.30;99.90
49765;DHT22;35657;51.204;-4.130;2023-03-14T00:06:13;9.30;99.90
49765;DHT22;35657;51.204;-4.130;2023-03-14T00:08:39;9.30;99.90
49765;DHT22;35657;51.204;-4.130;2023-03-14T00:11:10;9.30;99.90
49765;DHT22;35657;51.204;-4.130;2023-03-14T00:13:36;9.30;99.90
49765;DHT22;35657;51.204;-4.130;2023-03-14T00:16:11;9.30;99.90
49765;DHT22;35657;51.204;-4.130;2023-03-14T00:18:37;9.30;99.90
49765;DHT22;35657;51.204;-4.130;2023-03-14T00:21:04;9.20;99.90
49765;DHT22;35657;51.204;-4.130;2023-03-14T00:23:32;9.20;99.90
49765;DHT22;35657;51.204;-4.130;2023-03-14T00:25:59;9.20;99.90
49765;DHT22;35657;51.204;-4.130;2023-03-14T00:28:25;9.20;99.90
49765;DHT22;35657;51.204;-4.130;2023-03-14T00:30:51;9.10;99.90
49765;DHT22;35657;51.204;-4.130;2023-03-14T00:33:16;9.10;99.90
49765;DHT22;35657;51.204;-4.130;2023-03-14T00:35:42;9.00;99.90
49765;DHT22;35657;51.204;-4.130;2023-03-14T00:38:08;9.00;99.90
49765;DHT22;35657;51.204;-4.130;2023-03-14T00:40:33;9.00;99.90
49765;DHT22;35657;51.204;-4.130;2023-03-14T00:42:59;9.00;99.90
49765;DHT22;35657;51.204;-4.130;2023-03-14T00:45:25;8.90;99.90
49765;DHT22;35657;51.204;-4.130;2023-03-14T00:47:50;9.00;99.90
49765;DHT22;35657;51.204;-4.130;2023-03-14T00:50:16;9.00;99.90
49765;DHT22;35657;51.204;-4.130;2023-03-14T00:52:42;9.00;99.90
49765;DHT22;35657;51.204;-4.130;2023-03-14T00:55:08;9.00;99.90
49765;DHT22;35657;51.204;-4.130;2023-03-14T00:57:33;9.00;99.90
49765;DHT22;35657;51.204;-4.130;2023-03-14T00:59:59;9.00;99.90
49765;DHT22;35657;51.204;-4.130;2023-03-14T01:02:25;8.90;99.90
49765;DHT22;35657;51.204;-4.130;2023-03-14T01:04:51;8.90;99.90
49765;DHT22;35657;51.204;-4.130;2023-03-14T01:07:16;8.90;99.90
49765;DHT22;35657;51.204;-4.130;2023-03-14T01:09:42;8.90;99.90
49765;DHT22;35657;51.204;-4.130;2023-03-14T01:12:08;8.90;99.90
49765;DHT22;35657;51.204;-4.130;2023-03-14T01:14:33;8.80;99.90
49765;DHT22;35657;51.204;-4.130;2023-03-14T01:16:59;8.80;99.90
49765;DHT22;35657;51.204;-4.130;2023-03-14T01:19:28;8.80;99.90
49765;DHT22;35657;51.204;-4.130;2023-03-14T01:21:54;8.80;99.90
49765;DHT22;35657;51.204;-4.130;2023-03-14T01:24:20;8.80;99.90
49765;DHT22;35657;51.204;-4.130;2023-03-14T01:26:46;8.80;99.90
49765;DHT22;35657;51.204;-4.130;2023-03-14T01:29:12;8.80;99.90
49765;DHT22;35657;51.204;-4.130;2023-03-14T01:31:38;8.70;99.90
49765;DHT22;35657;51.204;-4.130;2023-03-14T01:34:04;8.70;99.90
49765;DHT22;35657;51.204;-4.130;2023-03-14T01:36:29;8.70;99.90
49765;DHT22;35657;51.204;-4.130;2023-03-14T01:38:55;8.70;99.90
49765;DHT22;35657;51.204;-4.130;2023-03-14T01:41:23;8.60;99.90
49765;DHT22;35657;51.204;-4.130;2023-03-14T01:43:49;8.60;99.90
49765;DHT22;35657;51.204;-4.130;2023-03-14T01:54:06;8.70;99.90
49765;DHT22;35657;51.204;-4.130;2023-03-14T01:56:33;8.70;99.90
49765;DHT22;35657;51.204;-4.130;2023-03-14T01:59:01;8.60;99.90
49765;DHT22;35657;51.204;-4.130;2023-03-14T02:01:29;8.60;99.90
49765;DHT22;35657;51.204;-4.130;2023-03-14T02:04:00;8.50;99.90
49765;DHT22;35657;51.204;-4.130;2023-03-14T02:06:32;8.60;99.90
49765;DHT22;35657;51.204;-4.130;2023-03-14T02:09:00;8.50;99.90
49765;DHT22;35657;51.204;-4.130;2023-03-14T02:11:28;8.50;99.90
49765;DHT22;35657;51.204;-4.130;2023-03-14T02:13:56;8.50;99.90
49765;DHT22;35657;51.204;-4.130;2023-03-14T02:16:23;8.50;99.90
49765;DHT22;35657;51.204;-4.130;2023-03-14T02:18:49;8.50;99.90
49765;DHT22;35657;51.204;-4.130;2023-03-14T02:21:33;8.50;99.90
49765;DHT22;35657;51.204;-4.130;2023-03-14T02:29:27;8.40;99.90
49765;DHT22;35657;51.204;-4.130;2023-03-14T02:31:53;8.40;99.90
49765;DHT22;35657;51.204;-4.130;2023-03-14T02:34:19;8.40;99.90
49765;DHT22;35657;51.204;-4.130;2023-03-14T02:36:45;8.40;99.90
49765;DHT22;35657;51.204;-4.130;2023-03-14T02:39:19;8.40;99.90
49765;DHT22;35657;51.204;-4.130;2023-03-14T02:41:47;8.30;99.90
49765;DHT22;35657;51.204;-4.130;2023-03-14T02:44:14;8.30;99.90
49765;DHT22;35657;51.204;-4.130;2023-03-14T02:46:40;8.20;99.90
49765;DHT22;35657;51.204;-4.130;2023-03-14T02:49:11;8.10;99.90
49765;DHT22;35657;51.204;-4.130;2023-03-14T02:51:38;8.10;99.90
49765;DHT22;35657;51.204;-4.130;2023-03-14T02:54:06;8.20;99.90
49765;DHT22;35657;51.204;-4.130;2023-03-14T02:56:32;8.10;99.90
49765;DHT22;35657;51.204;-4.130;2023-03-14T02:58:57;8.00;99.90
49765;DHT22;35657;51.204;-4.130;2023-03-14T03:01:24;8.10;99.90
49765;DHT22;35657;51.204;-4.130;2023-03-14T03:03:49;8.10;99.90
49765;DHT22;35657;51.204;-4.130;2023-03-14T03:06:15;8.00;99.90
49765;DHT22;35657;51.204;-4.130;2023-03-14T03:08:41;7.90;99.90
49765;DHT22;35657;51.204;-4.130;2023-03-14T03:11:07;7.90;99.90
49765;DHT22;35657;51.204;-4.130;2023-03-14T03:13:33;7.90;99.90
49765;DHT22;35657;51.204;-4.130;2023-03-14T03:15:59;8.00;99.90
49765;DHT22;35657;51.204;-4.130;2023-03-14T03:18:25;8.00;99.90
49765;DHT22;35657;51.204;-4.130;2023-03-14T03:20:51;7.90;99.90
49765;DHT22;35657;51.204;-4.130;2023-03-14T03:23:16;7.90;99.90
49765;DHT22;35657;51.204;-4.130;2023-03-14T03:25:47;7.90;99.90
49765;DHT22;35657;51.204;-4.130;2023-03-14T03:28:13;7.80;99.90
49765;DHT22;35657;51.204;-4.130;2023-03-14T03:30:39;7.90;99.90
49765;DHT22;35657;51.204;-4.130;2023-03-14T03:33:05;7.80;99.90
49765;DHT22;35657;51.204;-4.130;2023-03-14T03:35:31;7.80;99.90
49765;DHT22;35657;51.204;-4.130;2023-03-14T03:37:57;7.80;99.90
49765;DHT22;35657;51.204;-4.130;2023-03-14T03:40:23;7.70;99.90
49765;DHT22;35657;51.204;-4.130;2023-03-14T03:42:48;7.80;99.90
49765;DHT22;35657;51.204;-4.130;2023-03-14T03:45:14;7.70;99.90
49765;DHT22;35657;51.204;-4.130;2023-03-14T03:47:40;7.80;99.90
49765;DHT22;35657;51.204;-4.130;2023-03-14T03:50:06;7.80;99.90
49765;DHT22;35657;51.204;-4.130;2023-03-14T03:52:32;7.70;99.90
49765;DHT22;35657;51.204;-4.130;2023-03-14T03:54:57;7.70;99.90
49765;DHT22;35657;51.204;-4.130;2023-03-14T03:57:23;7.70;99.90
49765;DHT22;35657;51.204;-4.130;2023-03-14T03:59:49;7.70;99.90
49765;DHT22;35657;51.204;-4.130;2023-03-14T04:02:14;7.70;99.90
49765;DHT22;35657;51.204;-4.130;2023-03-14T04:04:40;7.70;99.90
49765;DHT22;35657;51.204;-4.130;2023-03-14T04:07:06;7.70;99.90
49765;DHT22;35657;51.204;-4.130;2023-03-14T04:09:31;7.70;99.90
49765;DHT22;35657;51.204;-4.130;2023-03-14T04:11:57;7.70;99.90
49765;DHT22;35657;51.204;-4.130;2023-03-14T04:14:23;7.70;99.90
49765;DHT22;35657;51.204;-4.130;2023-03-14T04:16:48;7.70;99.90
49765;DHT22;35657;51.204;-4.130;2023-03-14T04:19:14;7.80;99.90
49765;DHT22;35657;51.204;-4.130;2023-03-14T04:21:40;8.00;99.90
49765;DHT22;35657;51.204;-4.130;2023-03-14T04:24:10;8.00;99.90
49765;DHT22;35657;51.204;-4.130;2023-03-14T04:26:36;8.00;99.90
49765;DHT22;35657;51.204;-4.130;2023-03-14T04:29:02;8.00;99.90
49765;DHT22;35657;51.204;-4.130;2023-03-14T04:31:28;8.00;99.90
49765;DHT22;35657;51.204;-4.130;2023-03-14T04:33:53;7.90;99.90
49765;DHT22;35657;51.204;-4.130;2023-03-14T04:36:19;8.00;99.90
49765;DHT22;35657;51.204;-4.130;2023-03-14T04:38:45;8.00;99.90
49765;DHT22;35657;51.204;-4.130;2023-03-14T04:41:10;8.10;99.90
49765;DHT22;35657;51.204;-4.130;2023-03-14T04:43:36;7.90;99.90
49765;DHT22;35657;51.204;-4.130;2023-03-14T04:46:02;7.90;99.90
49765;DHT22;35657;51.204;-4.130;2023-03-14T04:48:28;7.90;99.90
49765;DHT22;35657;51.204;-4.130;2023-03-14T04:50:54;7.80;99.90
49765;DHT22;35657;51.204;-4.130;2023-03-14T04:53:20;7.90;99.90
49765;DHT22;35657;51.204;-4.130;2023-03-14T04:55:51;7.90;99.90
49765;DHT22;35657;51.204;-4.130;2023-03-14T04:58:17;7.90;99.90
49765;DHT22;35657;51.204;-4.130;2023-03-14T05:00:43;7.90;99.90
49765;DHT22;35657;51.204;-4.130;2023-03-14T05:03:09;7.90;99.90
49765;DHT22;35657;51.204;-4.130;2023-03-14T05:05:35;7.80;99.90
49765;DHT22;35657;51.204;-4.130;2023-03-14T05:08:00;7.70;99.90
49765;DHT22;35657;51.204;-4.130;2023-03-14T05:10:26;7.70;99.90
49765;DHT22;35657;51.204;-4.130;2023-03-14T05:12:52;7.60;99.90
49765;DHT22;35657;51.204;-4.130;2023-03-14T05:15:17;7.70;99.90
49765;DHT22;35657;51.204;-4.130;2023-03-14T05:17:43;7.80;99.90
49765;DHT22;35657;51.204;-4.130;2023-03-14T05:20:09;7.90;99.90
49765;DHT22;35657;51.204;-4.130;2023-03-14T05:22:38;8.00;99.90
49765;DHT22;35657;51.204;-4.130;2023-03-14T05:25:04;8.00;99.90
49765;DHT22;35657;51.204;-4.130;2023-03-14T05:27:30;8.00;99.90
49765;DHT22;35657;51.204;-4.130;2023-03-14T05:29:56;8.00;99.90
49765;DHT22;35657;51.204;-4.130;2023-03-14T05:32:21;8.00;99.90
49765;DHT22;35657;51.204;-4.130;2023-03-14T05:34:47;8.00;99.90
49765;DHT22;35657;51.204;-4.130;2023-03-14T05:37:13;8.00;99.90
49765;DHT22;35657;51.204;-4.130;2023-03-14T05:39:38;8.00;99.90
49765;DHT22;35657;51.204;-4.130;2023-03-14T05:42:04;7.90;99.90
49765;DHT22;35657;51.204;-4.130;2023-03-14T05:44:30;7.90;99.90
49765;DHT22;35657;51.204;-4.130;2023-03-14T05:46:56;8.00;99.90
49765;DHT22;35657;51.204;-4.130;2023-03-14T05:49:21;7.80;99.90
49765;DHT22;35657;51.204;-4.130;2023-03-14T05:51:47;7.80;99.90
49765;DHT22;35657;51.204;-4.130;2023-03-14T05:54:13;7.80;99.90
49765;DHT22;35657;51.204;-4.130;2023-03-14T05:56:38;7.80;99.90
49765;DHT22;35657;51.204;-4.130;2023-03-14T05:59:04;7.80;99.90
49765;DHT22;35657;51.204;-4.130;2023-03-14T06:01:30;7.90;99.90
49765;DHT22;35657;51.204;-4.130;2023-03-14T06:03:56;7.90;99.90
49765;DHT22;35657;51.204;-4.130;2023-03-14T06:06:22;7.90;99.90
49765;DHT22;35657;51.204;-4.130;2023-03-14T06:08:47;7.90;99.90
49765;DHT22;35657;51.204;-4.130;2023-03-14T06:11:13;8.00;99.90
49765;DHT22;35657;51.204;-4.130;2023-03-14T06:13:39;7.90;99.90
49765;DHT22;35657;51.204;-4.130;2023-03-14T06:16:05;7.90;99.90
49765;DHT22;35657;51.204;-4.130;2023-03-14T06:18:31;7.90;99.90
49765;DHT22;35657;51.204;-4.130;2023-03-14T06:20:57;7.90;99.90
49765;DHT22;35657;51.204;-4.130;2023-03-14T06:23:23;7.60;99.90
49765;DHT22;35657;51.204;-4.130;2023-03-14T06:25:50;7.50;99.90
49765;DHT22;35657;51.204;-4.130;2023-03-14T06:28:16;7.40;99.90
49765;DHT22;35657;51.204;-4.130;2023-03-14T06:30:42;7.40;99.90
49765;DHT22;35657;51.204;-4.130;2023-03-14T06:33:08;7.30;99.90
49765;DHT22;35657;51.204;-4.130;2023-03-14T06:35:33;7.20;99.90
49765;DHT22;35657;51.204;-4.130;2023-03-14T06:37:59;7.30;99.90
49765;DHT22;35657;51.204;-4.130;2023-03-14T06:40:25;7.30;99.90
49765;DHT22;35657;51.204;-4.130;2023-03-14T06:42:51;7.20;99.90
49765;DHT22;35657;51.204;-4.130;2023-03-14T06:45:17;7.20;99.90
49765;DHT22;35657;51.204;-4.130;2023-03-14T06:47:43;7.40;99.90
49765;DHT22;35657;51.204;-4.130;2023-03-14T06:50:10;7.40;99.90
49765;DHT22;35657;51.204;-4.130;2023-03-14T06:52:36;7.30;99.90
49765;DHT22;35657;51.204;-4.130;2023-03-14T06:55:02;7.50;99.90
49765;DHT22;35657;51.204;-4.130;2023-03-14T06:57:27;7.50;99.90
49765;DHT22;35657;51.204;-4.130;2023-03-14T06:59:53;7.60;99.90
49765;DHT22;35657;51.204;-4.130;2023-03-14T07:02:19;7.70;99.90
49765;DHT22;35657;51.204;-4.130;2023-03-14T07:04:44;7.60;99.90
49765;DHT22;35657;51.204;-4.130;2023-03-14T07:07:10;7.50;99.90
49765;DHT22;35657;51.204;-4.130;2023-03-14T07:09:36;7.60;99.90
49765;DHT22;35657;51.204;-4.130;2023-03-14T07:12:02;7.50;99.90
49765;DHT22;35657;51.204;-4.130;2023-03-14T07:14:29;7.40;99.90
49765;DHT22;35657;51.204;-4.130;2023-03-14T07:16:55;7.40;99.90
49765;DHT22;35657;51.204;-4.130;2023-03-14T07:19:21;7.50;99.90
49765;DHT22;35657;51.204;-4.130;2023-03-14T07:21:47;7.60;99.90
49765;DHT22;35657;51.204;-4.130;2023-03-14T07:24:12;7.40;99.90
49765;DHT22;35657;51.204;-4.130;2023-03-14T07:26:38;7.30;99.90
49765;DHT22;35657;51.204;-4.130;2023-03-14T07:29:04;7.20;99.90
49765;DHT22;35657;51.204;-4.130;2023-03-14T07:31:30;7.30;99.90
49765;DHT22;35657;51.204;-4.130;2023-03-14T07:33:56;7.40;99.90
49765;DHT22;35657;51.204;-4.130;2023-03-14T07:36:21;7.30;99.90
49765;DHT22;35657;51.204;-4.130;2023-03-14T07:38:47;7.30;99.90
49765;DHT22;35657;51.204;-4.130;2023-03-14T07:41:13;7.30;99.90
49765;DHT22;35657;51.204;-4.130;2023-03-14T07:43:39;7.30;99.90
49765;DHT22;35657;51.204;-4.130;2023-03-14T07:46:06;7.40;99.90
49765;DHT22;35657;51.204;-4.130;2023-03-14T07:48:32;7.40;99.90
49765;DHT22;35657;51.204;-4.130;2023-03-14T07:50:58;7.50;99.90
49765;DHT22;35657;51.204;-4.130;2023-03-14T07:53:24;7.40;99.90
49765;DHT22;35657;51.204;-4.130;2023-03-14T07:55:51;7.40;99.90
49765;DHT22;35657;51.204;-4.130;2023-03-14T07:58:17;7.40;99.90
49765;DHT22;35657;51.204;-4.130;2023-03-14T08:00:43;7.30;99.90
49765;DHT22;35657;51.204;-4.130;2023-03-14T08:03:09;7.30;99.90
49765;DHT22;35657;51.204;-4.130;2023-03-14T08:05:37;7.30;99.90
49765;DHT22;35657;51.204;-4.130;2023-03-14T08:08:04;7.30;99.90
49765;DHT22;35657;51.204;-4.130;2023-03-14T08:10:30;7.20;99.90
49765;DHT22;35657;51.204;-4.130;2023-03-14T08:12:58;7.30;99.90
49765;DHT22;35657;51.204;-4.130;2023-03-14T08:15:24;7.30;99.90
49765;DHT22;35657;51.204;-4.130;2023-03-14T08:17:50;7.40;99.90
49765;DHT22;35657;51.204;-4.130;2023-03-14T08:20:24;7.40;99.90
49765;DHT22;35657;51.204;-4.130;2023-03-14T08:22:50;7.50;99.90
49765;DHT22;35657;51.204;-4.130;2023-03-14T08:25:16;7.60;99.90
49765;DHT22;35657;51.204;-4.130;2023-03-14T08:27:42;7.60;99.90
49765;DHT22;35657;51.204;-4.130;2023-03-14T08:30:11;7.60;99.90
49765;DHT22;35657;51.204;-4.130;2023-03-14T08:32:37;7.50;99.90
49765;DHT22;35657;51.204;-4.130;2023-03-14T08:35:04;7.50;99.90
49765;DHT22;35657;51.204;-4.130;2023-03-14T08:37:31;7.30;99.90
49765;DHT22;35657;51.204;-4.130;2023-03-14T08:39:57;7.50;99.90
49765;DHT22;35657;51.204;-4.130;2023-03-14T08:42:23;7.60;99.90
49765;DHT22;35657;51.204;-4.130;2023-03-14T08:44:48;7.50;99.90
49765;DHT22;35657;51.204;-4.130;2023-03-14T08:47:14;7.50;99.90
49765;DHT22;35657;51.204;-4.130;2023-03-14T08:49:40;7.60;99.90
49765;DHT22;35657;51.204;-4.130;2023-03-14T08:52:05;7.60;99.90
49765;DHT22;35657;51.204;-4.130;2023-03-14T08:54:31;7.40;99.90
49765;DHT22;35657;51.204;-4.130;2023-03-14T08:56:58;7.30;99.90
49765;DHT22;35657;51.204;-4.130;2023-03-14T08:59:24;7.40;99.90
49765;DHT22;35657;51.204;-4.130;2023-03-14T09:01:49;7.30;99.90
49765;DHT22;35657;51.204;-4.130;2023-03-14T09:04:15;7.40;99.90
49765;DHT22;35657;51.204;-4.130;2023-03-14T09:06:41;7.50;99.90
49765;DHT22;35657;51.204;-4.130;2023-03-14T09:09:07;7.50;99.90
49765;DHT22;35657;51.204;-4.130;2023-03-14T09:11:33;7.60;99.90
49765;DHT22;35657;51.204;-4.130;2023-03-14T09:13:59;7.70;99.90
49765;DHT22;35657;51.204;-4.130;2023-03-14T09:16:25;7.70;99.90
49765;DHT22;35657;51.204;-4.130;2023-03-14T09:18:51;7.60;99.90
49765;DHT22;35657;51.204;-4.130;2023-03-14T09:21:22;7.70;99.90
49765;DHT22;35657;51.204;-4.130;2023-03-14T09:23:48;7.80;99.90
49765;DHT22;35657;51.204;-4.130;2023-03-14T09:26:14;7.80;99.90
49765;DHT22;35657;51.204;-4.130;2023-03-14T09:28:40;7.70;99.90
49765;DHT22;35657;51.204;-4.130;2023-03-14T09:31:09;7.70;99.90
49765;DHT22;35657;51.204;-4.130;2023-03-14T09:33:36;7.70;99.90
49765;DHT22;35657;51.204;-4.130;2023-03-14T09:36:02;7.80;99.90
49765;DHT22;35657;51.204;-4.130;2023-03-14T09:38:29;7.70;99.90
49765;DHT22;35657;51.204;-4.130;2023-03-14T09:40:55;7.90;99.90
49765;DHT22;35657;51.204;-4.130;2023-03-14T09:43:24;7.90;99.90
49765;DHT22;35657;51.204;-4.130;2023-03-14T09:45:52;8.10;99.90
49765;DHT22;35657;51.204;-4.130;2023-03-14T09:48:22;8.30;99.90
49765;DHT22;35657;51.204;-4.130;2023-03-14T09:50:52;8.40;99.90
49765;DHT22;35657;51.204;-4.130;2023-03-14T09:53:22;8.40;99.90
49765;DHT22;35657;51.204;-4.130;2023-03-14T09:55:50;8.30;99.90
49765;DHT22;35657;51.204;-4.130;2023-03-14T09:58:22;8.10;99.90
49765;DHT22;35657;51.204;-4.130;2023-03-14T10:00:50;8.30;99.90
49765;DHT22;35657;51.204;-4.130;2023-03-14T10:05:48;8.80;99.90
49765;DHT22;35657;51.204;-4.130;2023-03-14T10:08:14;8.70;99.90
49765;DHT22;35657;51.204;-4.130;2023-03-14T10:10:40;8.70;99.90
49765;DHT22;35657;51.204;-4.130;2023-03-14T10:13:24;8.30;99.90
49765;DHT22;35657;51.204;-4.130;2023-03-14T10:16:12;8.40;99.90
49765;DHT22;35657;51.204;-4.130;2023-03-14T10:18:44;8.40;99.90
49765;DHT22;35657;51.204;-4.130;2023-03-14T10:21:30;8.30;99.90
49765;DHT22;35657;51.204;-4.130;2023-03-14T10:26:57;8.40;99.90
49765;DHT22;35657;51.204;-4.130;2023-03-14T10:29:23;8.50;99.90
49765;DHT22;35657;51.204;-4.130;2023-03-14T10:31:59;8.60;99.90
49765;DHT22;35657;51.204;-4.130;2023-03-14T10:34:34;8.90;99.90
49765;DHT22;35657;51.204;-4.130;2023-03-14T10:37:23;8.90;99.90
49765;DHT22;35657;51.204;-4.130;2023-03-14T10:39:53;8.80;99.90
49765;DHT22;35657;51.204;-4.130;2023-03-14T10:42:24;8.80;99.90
49765;DHT22;35657;51.204;-4.130;2023-03-14T10:44:58;8.70;99.90
49765;DHT22;35657;51.204;-4.130;2023-03-14T10:47:26;8.90;99.90
49765;DHT22;35657;51.204;-4.130;2023-03-14T10:49:54;9.30;99.90
49765;DHT22;35657;51.204;-4.130;2023-03-14T10:52:23;9.40;99.90
49765;DHT22;35657;51.204;-4.130;2023-03-14T10:54:56;9.40;99.90
49765;DHT22;35657;51.204;-4.130;2023-03-14T10:57:22;9.70;99.90
49765;DHT22;35657;51.204;-4.130;2023-03-14T10:59:48;10.00;99.90
49765;DHT22;35657;51.204;-4.130;2023-03-14T11:04:57;10.00;99.90
49765;DHT22;35657;51.204;-4.130;2023-03-14T11:07:43;9.80;99.90
49765;DHT22;35657;51.204;-4.130;2023-03-14T11:10:35;9.80;99.90
49765;DHT22;35657;51.204;-4.130;2023-03-14T11:13:23;10.10;99.90
49765;DHT22;35657;51.204;-4.130;2023-03-14T11:21:35;9.80;99.90
49765;DHT22;35657;51.204;-4.130;2023-03-14T11:32:43;9.90;99.90
49765;DHT22;35657;51.204;-4.130;2023-03-14T11:35:17;9.90;99.90
49765;DHT22;35657;51.204;-4.130;2023-03-14T11:40:38;9.30;99.90
49765;DHT22;35657;51.204;-4.130;2023-03-14T11:43:59;9.70;99.90
49765;DHT22;35657;51.204;-4.130;2023-03-14T11:46:10;9.70;99.90
49765;DHT22;35657;51.204;-4.130;2023-03-14T11:51:28;10.00;99.90
49765;DHT22;35657;51.204;-4.130;2023-03-14T11:54:17;10.20;99.90
49765;DHT22;35657;51.204;-4.130;2023-03-14T11:56:48;10.30;99.90
49765;DHT22;35657;51.204;-4.130;2023-03-14T11:59:20;10.30;99.90
49765;DHT22;35657;51.204;-4.130;2023-03-14T12:05:19;10.20;99.90
49765;DHT22;35657;51.204;-4.130;2023-03-14T12:13:11;10.80;99.90
49765;DHT22;35657;51.204;-4.130;2023-03-14T12:15:47;10.80;99.90
49765;DHT22;35657;51.204;-4.130;2023-03-14T12:18:32;10.70;99.90
49765;DHT22;35657;51.204;-4.130;2023-03-14T12:21:03;10.90;99.90
49765;DHT22;35657;51.204;-4.130;2023-03-14T12:23:56;10.70;99.90
49765;DHT22;35657;51.204;-4.130;2023-03-14T12:26:25;10.60;99.90
49765;DHT22;35657;51.204;-4.130;2023-03-14T12:42:13;10.50;99.90
49765;DHT22;35657;51.204;-4.130;2023-03-14T12:44:47;10.70;99.90
49765;DHT22;35657;51.204;-4.130;2023-03-14T12:49:47;10.50;99.90
49765;DHT22;35657;51.204;-4.130;2023-03-14T12:54:49;10.30;99.90
49765;DHT22;35657;51.204;-4.130;2023-03-14T12:58:10;10.50;99.90
49765;DHT22;35657;51.204;-4.130;2023-03-14T13:00:20;10.20;99.90
49765;DHT22;35657;51.204;-4.130;2023-03-14T13:02:47;9.90;99.90
49765;DHT22;35657;51.204;-4.130;2023-03-14T13:05:19;9.90;99.90
49765;DHT22;35657;51.204;-4.130;2023-03-14T13:10:26;10.60;99.90
49765;DHT22;35657;51.204;-4.130;2023-03-14T13:13:20;10.40;99.90
49765;DHT22;35657;51.204;-4.130;2023-03-14T13:15:48;10.30;99.90
49765;DHT22;35657;51.204;-4.130;2023-03-14T13:18:34;10.80;99.90
49765;DHT22;35657;51.204;-4.130;2023-03-14T13:21:22;11.10;99.90
49765;DHT22;35657;51.204;-4.130;2023-03-14T13:24:01;11.00;99.90
49765;DHT22;35657;51.204;-4.130;2023-03-14T13:26:43;11.00;99.90
49765;DHT22;35657;51.204;-4.130;2023-03-14T13:29:30;11.10;99.90
49765;DHT22;35657;51.204;-4.130;2023-03-14T13:32:01;10.70;99.90
49765;DHT22;35657;51.204;-4.130;2023-03-14T13:34:34;10.70;99.90
49765;DHT22;35657;51.204;-4.130;2023-03-14T13:37:00;10.50;99.90
49765;DHT22;35657;51.204;-4.130;2023-03-14T13:39:28;10.60;99.90
49765;DHT22;35657;51.204;-4.130;2023-03-14T13:42:03;10.50;99.90
49765;DHT22;35657;51.204;-4.130;2023-03-14T13:44:34;10.70;99.90
49765;DHT22;35657;51.204;-4.130;2023-03-14T13:47:03;10.60;99.90
49765;DHT22;35657;51.204;-4.130;2023-03-14T13:49:32;10.80;99.90
49765;DHT22;35657;51.204;-4.130;2023-03-14T13:52:01;10.60;99.90
49765;DHT22;35657;51.204;-4.130;2023-03-14T13:54:27;10.60;99.90
49765;DHT22;35657;51.204;-4.130;2023-03-14T13:57:01;10.80;99.90
49765;DHT22;35657;51.204;-4.130;2023-03-14T13:59:29;10.60;99.90
49765;DHT22;35657;51.204;-4.130;2023-03-14T14:01:58;10.60;99.90
49765;DHT22;35657;51.204;-4.130;2023-03-14T14:04:25;10.50;99.90
49765;DHT22;35657;51.204;-4.130;2023-03-14T14:07:07;10.40;99.90
49765;DHT22;35657;51.204;-4.130;2023-03-14T14:09:46;10.50;99.90
49765;DHT22;35657;51.204;-4.130;2023-03-14T14:12:16;10.60;99.90
49765;DHT22;35657;51.204;-4.130;2023-03-14T14:17:15;10.40;99.90
49765;DHT22;35657;51.204;-4.130;2023-03-14T14:19:42;10.40;99.90
49765;DHT22;35657;51.204;-4.130;2023-03-14T14:22:09;10.50;99.90
49765;DHT22;35657;51.204;-4.130;2023-03-14T14:24:36;10.30;99.90
49765;DHT22;35657;51.204;-4.130;2023-03-14T14:27:28;10.40;99.90
49765;DHT22;35657;51.204;-4.130;2023-03-14T14:32:48;10.60;99.90
49765;DHT22;35657;51.204;-4.130;2023-03-14T14:35:31;10.50;99.90
49765;DHT22;35657;51.204;-4.130;2023-03-14T14:37:58;10.60;99.90
49765;DHT22;35657;51.204;-4.130;2023-03-14T14:40:27;10.70;99.90
49765;DHT22;35657;51.204;-4.130;2023-03-14T14:42:53;10.80;99.90
49765;DHT22;35657;51.204;-4.130;2023-03-14T14:45:23;10.80;99.90
49765;DHT22;35657;51.204;-4.130;2023-03-14T14:48:04;10.80;99.90
49765;DHT22;35657;51.204;-4.130;2023-03-14T14:53:01;10.60;99.90
49765;DHT22;35657;51.204;-4.130;2023-03-14T14:55:39;10.80;99.90
49765;DHT22;35657;51.204;-4.130;2023-03-14T14:58:27;10.70;99.90
49765;DHT22;35657;51.204;-4.130;2023-03-14T15:00:57;10.70;99.90
49765;DHT22;35657;51.204;-4.130;2023-03-14T15:03:26;10.70;99.90
49765;DHT22;35657;51.204;-4.130;2023-03-14T15:05:53;10.50;99.90
49765;DHT22;35657;51.204;-4.130;2023-03-14T15:08:20;10.40;99.90
49765;DHT22;35657;51.204;-4.130;2023-03-14T15:10:46;10.50;99.90
49765;DHT22;35657;51.204;-4.130;2023-03-14T15:13:12;10.60;99.90
49765;DHT22;35657;51.204;-4.130;2023-03-14T15:15:38;10.40;99.90
49765;DHT22;35657;51.204;-4.130;2023-03-14T15:18:12;10.40;99.90
49765;DHT22;35657;51.204;-4.130;2023-03-14T15:20:39;10.50;99.90
49765;DHT22;35657;51.204;-4.130;2023-03-14T15:23:10;10.50;99.90
49765;DHT22;35657;51.204;-4.130;2023-03-14T15:25:36;10.10;99.90
49765;DHT22;35657;51.204;-4.130;2023-03-14T15:28:27;10.10;99.90
49765;DHT22;35657;51.204;-4.130;2023-03-14T15:30:53;10.00;99.90
49765;DHT22;35657;51.204;-4.130;2023-03-14T15:33:20;10.00;99.90
49765;DHT22;35657;51.204;-4.130;2023-03-14T15:35:46;10.20;99.90
49765;DHT22;35657;51.204;-4.130;2023-03-14T15:38:15;10.20;99.90
49765;DHT22;35657;51.204;-4.130;2023-03-14T15:40:41;10.10;99.90
49765;DHT22;35657;51.204;-4.130;2023-03-14T15:43:07;10.10;99.90
49765;DHT22;35657;51.204;-4.130;2023-03-14T15:45:34;10.20;99.90
49765;DHT22;35657;51.204;-4.130;2023-03-14T15:48:00;10.20;99.90
49765;DHT22;35657;51.204;-4.130;2023-03-14T15:50:26;10.10;99.90
49765;DHT22;35657;51.204;-4.130;2023-03-14T15:52:52;10.10;99.90
49765;DHT22;35657;51.204;-4.130;2023-03-14T15:55:18;10.30;99.90
49765;DHT22;35657;51.204;-4.130;2023-03-14T15:57:44;10.20;99.90
49765;DHT22;35657;51.204;-4.130;2023-03-14T16:00:15;10.30;99.90
49765;DHT22;35657;51.204;-4.130;2023-03-14T16:02:43;10.40;99.90
49765;DHT22;35657;51.204;-4.130;2023-03-14T16:05:09;10.50;99.90
49765;DHT22;35657;51.204;-4.130;2023-03-14T16:07:36;10.50;99.90
49765;DHT22;35657;51.204;-4.130;2023-03-14T16:10:02;10.50;99.90
49765;DHT22;35657;51.204;-4.130;2023-03-14T16:12:28;10.60;99.90
49765;DHT22;35657;51.204;-4.130;2023-03-14T16:14:54;10.60;99.90
49765;DHT22;35657;51.204;-4.130;2023-03-14T16:17:20;10.60;99.90
49765;DHT22;35657;51.204;-4.130;2023-03-14T16:19:45;10.30;99.90
49765;DHT22;35657;51.204;-4.130;2023-03-14T16:22:12;10.40;99.90
49765;DHT22;35657;51.204;-4.130;2023-03-14T16:24:37;10.40;99.90
49765;DHT22;35657;51.204;-4.130;2023-03-14T16:27:03;10.40;99.90
49765;DHT22;35657;51.204;-4.130;2023-03-14T16:29:29;10.40;99.90
49765;DHT22;35657;51.204;-4.130;2023-03-14T16:31:55;10.20;99.90
49765;DHT22;35657;51.204;-4.130;2023-03-14T16:34:21;10.10;99.90
49765;DHT22;35657;51.204;-4.130;2023-03-14T16:36:47;10.00;99.90
49765;DHT22;35657;51.204;-4.130;2023-03-14T16:39:16;10.10;99.90
49765;DHT22;35657;51.204;-4.130;2023-03-14T16:41:42;10.10;99.90
49765;DHT22;35657;51.204;-4.130;2023-03-14T16:44:08;10.00;99.90
49765;DHT22;35657;51.204;-4.130;2023-03-14T16:46:34;10.00;99.90
49765;DHT22;35657;51.204;-4.130;2023-03-14T16:49:00;10.00;99.90
49765;DHT22;35657;51.204;-4.130;2023-03-14T16:51:26;9.90;99.90
49765;DHT22;35657;51.204;-4.130;2023-03-14T16:53:52;9.80;99.90